Time;durP1;ratioP1;P1;durP2;ratioP2;P2;SDS_P1;SDS_P2;PMS_P1;PMS_P2;Temp;Humidity;BMP_temperature;BMP_pressure;BME280_temperature;BME280_humidity;BME280_pressure;Samples;Min_cycle;Max_cycle;Signal;HPM_P1;HPM_P2
2022/04/11 00:01:51;;;;;;;;;6.00;6.00;;;;;;;;5036677;28;45414;-61
2022/04/11 00:04:17;;;;;;;;;5.00;5.00;;;;;;;;5035980;28;45951;-61
2022/04/11 00:06:42;;;;;;;;;6.00;6.00;;;;;;;;5036329;28;45580;-61
2022/04/11 00:09:07;;;;;;;;;5.50;5.50;;;;;;;;5029243;28;45510;-61
2022/04/11 00:11:32;;;;;;;;;5.00;5.00;;;;;;;;5027716;28;45321;-61
2022/04/11 00:13:58;;;;;;;;;5.00;5.00;;;;;;;;5035599;28;46036;-61
2022/04/11 00:16:23;;;;;;;;;5.50;4.75;;;;;;;;5032222;28;46423;-61
2022/04/11 00:18:48;;;;;;;;;5.50;5.50;;;;;;;;5038190;28;45424;-62
2022/04/11 00:21:13;;;;;;;;;4.00;4.00;;;;;;;;5030015;28;45454;-62
2022/04/11 00:23:38;;;;;;;;;3.25;3.25;;;;;;;;5028248;28;45409;-61
2022/04/11 00:26:04;;;;;;;;;5.25;5.00;;;;;;;;5032310;28;45473;-62
2022/04/11 00:28:29;;;;;;;;;3.50;3.50;;;;;;;;5034605;28;45478;-61
2022/04/11 00:30:54;;;;;;;;;5.00;5.00;;;;;;;;5033415;28;45592;-61
2022/04/11 00:33:19;;;;;;;;;5.25;5.00;;;;;;;;5032740;28;46344;-61
2022/04/11 00:35:46;;;;;;;;;4.00;3.00;;;;;;;;5033483;28;45442;-61
2022/04/11 00:38:11;;;;;;;;;4.00;4.00;;;;;;;;5034371;28;45406;-61
2022/04/11 00:40:37;;;;;;;;;4.75;4.75;;;;;;;;5034289;28;45370;-62
2022/04/11 00:43:02;;;;;;;;;3.00;3.00;;;;;;;;5036448;28;46588;-61
2022/04/11 00:45:27;;;;;;;;;3.00;3.00;;;;;;;;5033273;28;45431;-61
2022/04/11 00:47:52;;;;;;;;;3.00;3.00;;;;;;;;5034123;28;45421;-61
2022/04/11 00:50:18;;;;;;;;;4.00;3.00;;;;;;;;5033959;28;45513;-61
2022/04/11 00:52:48;;;;;;;;;4.00;3.00;;;;;;;;5036187;28;45629;-62
2022/04/11 00:55:13;;;;;;;;;4.75;4.00;;;;;;;;5034138;28;45390;-61
2022/04/11 00:57:39;;;;;;;;;4.75;4.75;;;;;;;;5028308;28;45540;-62
2022/04/11 01:00:06;;;;;;;;;2.25;2.25;;;;;;;;5029060;28;45457;-61
2022/04/11 01:02:32;;;;;;;;;3.75;3.75;;;;;;;;5035185;28;46339;-61
2022/04/11 01:04:57;;;;;;;;;3.25;3.00;;;;;;;;5034966;28;45417;-61
2022/04/11 01:07:22;;;;;;;;;3.75;3.75;;;;;;;;5035203;28;45423;-61
2022/04/11 01:09:47;;;;;;;;;6.00;3.00;;;;;;;;5032310;28;45322;-61
2022/04/11 01:12:15;;;;;;;;;2.75;2.75;;;;;;;;5030332;28;45493;-62
2022/04/11 01:14:40;;;;;;;;;4.25;3.00;;;;;;;;5029792;28;46439;-61
2022/04/11 01:17:05;;;;;;;;;2.00;2.00;;;;;;;;5022059;28;45341;-61
2022/04/11 01:19:30;;;;;;;;;3.00;3.00;;;;;;;;5033874;28;45431;-62
2022/04/11 01:21:56;;;;;;;;;4.00;3.25;;;;;;;;5031527;28;47426;-61
2022/04/11 01:24:21;;;;;;;;;3.00;3.00;;;;;;;;5032057;28;45356;-62
2022/04/11 01:26:47;;;;;;;;;4.00;4.00;;;;;;;;5033419;28;45367;-61
2022/04/11 01:29:13;;;;;;;;;3.50;3.50;;;;;;;;5034384;28;45357;-62
2022/04/11 01:31:38;;;;;;;;;4.00;3.00;;;;;;;;5034751;28;47836;-61
2022/04/11 01:34:04;;;;;;;;;4.50;3.50;;;;;;;;5036916;28;45496;-62
2022/04/11 01:36:29;;;;;;;;;2.50;2.50;;;;;;;;5034818;28;45404;-61
2022/04/11 01:38:54;;;;;;;;;4.00;3.00;;;;;;;;5034086;28;45447;-61
2022/04/11 01:41:20;;;;;;;;;3.00;2.00;;;;;;;;5032684;28;45709;-61
2022/04/11 01:43:45;;;;;;;;;4.00;4.00;;;;;;;;5027714;28;45425;-62
2022/04/11 01:46:10;;;;;;;;;2.00;2.00;;;;;;;;5026162;28;45307;-62
2022/04/11 01:48:35;;;;;;;;;2.00;2.00;;;;;;;;5031361;28;45432;-61
2022/04/11 01:51:01;;;;;;;;;2.50;2.50;;;;;;;;5024509;28;45666;-61
2022/04/11 01:53:26;;;;;;;;;3.75;2.25;;;;;;;;5020752;28;45470;-62
2022/04/11 01:55:51;;;;;;;;;4.50;2.75;;;;;;;;5019016;28;45447;-62
2022/04/11 01:58:16;;;;;;;;;3.00;3.00;;;;;;;;5032649;28;45219;-61
2022/04/11 02:00:43;;;;;;;;;3.00;3.00;;;;;;;;5031170;28;48218;-61
2022/04/11 02:03:09;;;;;;;;;5.75;4.25;;;;;;;;5024724;28;45829;-61
2022/04/11 02:05:34;;;;;;;;;3.50;3.50;;;;;;;;5029168;28;45332;-61
2022/04/11 02:08:00;;;;;;;;;4.00;3.00;;;;;;;;5018403;28;45262;-60
2022/04/11 02:10:26;;;;;;;;;5.25;2.50;;;;;;;;5031400;28;46998;-61
2022/04/11 02:12:52;;;;;;;;;4.00;3.25;;;;;;;;5028649;28;46192;-61
2022/04/11 02:15:17;;;;;;;;;4.75;4.50;;;;;;;;5037789;28;45399;-62
2022/04/11 02:17:43;;;;;;;;;4.00;3.00;;;;;;;;5026404;28;45443;-61
2022/04/11 02:20:09;;;;;;;;;2.00;2.00;;;;;;;;5017498;28;45755;-61
2022/04/11 02:22:44;;;;;;;;;5.00;4.00;;;;;;;;5014210;28;45483;-61
2022/04/11 02:25:10;;;;;;;;;3.00;3.00;;;;;;;;5031335;28;45330;-62
2022/04/11 02:27:35;;;;;;;;;2.75;2.75;;;;;;;;5024491;28;45270;-60
2022/04/11 02:30:00;;;;;;;;;5.00;4.00;;;;;;;;5025406;28;45454;-62
2022/04/11 02:32:25;;;;;;;;;4.25;4.25;;;;;;;;5030494;28;45442;-62
2022/04/11 02:34:50;;;;;;;;;4.00;4.00;;;;;;;;5031258;28;45485;-61
2022/04/11 02:37:16;;;;;;;;;5.00;4.00;;;;;;;;5030483;28;45453;-62
2022/04/11 02:39:41;;;;;;;;;8.25;4.50;;;;;;;;5020405;28;45493;-61
2022/04/11 02:42:06;;;;;;;;;5.00;5.00;;;;;;;;5023289;28;45371;-61
2022/04/11 02:44:31;;;;;;;;;3.00;3.00;;;;;;;;5029057;28;45475;-60
2022/04/11 02:46:57;;;;;;;;;3.50;3.00;;;;;;;;5019150;28;47406;-62
2022/04/11 02:49:22;;;;;;;;;3.00;3.00;;;;;;;;5017438;28;46678;-62
2022/04/11 02:51:47;;;;;;;;;3.00;3.00;;;;;;;;5031219;28;45379;-62
2022/04/11 02:54:13;;;;;;;;;3.50;3.00;;;;;;;;5028101;28;45262;-60
2022/04/11 02:56:38;;;;;;;;;4.00;2.75;;;;;;;;5037648;28;46329;-61
2022/04/11 02:59:03;;;;;;;;;4.00;4.00;;;;;;;;5033233;28;45735;-60
2022/04/11 03:01:28;;;;;;;;;4.75;4.75;;;;;;;;5032470;28;45528;-61
2022/04/11 03:03:54;;;;;;;;;4.25;3.25;;;;;;;;5032750;28;45790;-61
2022/04/11 03:06:19;;;;;;;;;5.00;4.75;;;;;;;;5031827;28;45377;-61
2022/04/11 03:08:45;;;;;;;;;7.50;5.00;;;;;;;;5033080;28;45698;-61
2022/04/11 03:11:10;;;;;;;;;5.00;5.00;;;;;;;;5033435;28;45430;-62
2022/04/11 03:13:35;;;;;;;;;6.50;4.75;;;;;;;;5016154;28;45275;-61
2022/04/11 03:16:00;;;;;;;;;6.50;3.75;;;;;;;;5035613;28;45444;-61
2022/04/11 03:18:25;;;;;;;;;5.25;4.50;;;;;;;;5027963;28;46409;-61
2022/04/11 03:20:51;;;;;;;;;5.00;5.00;;;;;;;;5032496;28;45436;-61
2022/04/11 03:23:16;;;;;;;;;4.25;3.00;;;;;;;;5031735;28;45221;-61
2022/04/11 03:25:42;;;;;;;;;4.00;4.00;;;;;;;;5031770;28;45385;-60
2022/04/11 03:28:07;;;;;;;;;5.75;4.25;;;;;;;;5013565;28;46426;-62
2022/04/11 03:30:32;;;;;;;;;6.00;4.25;;;;;;;;5031686;28;45482;-62
2022/04/11 03:32:57;;;;;;;;;5.00;4.00;;;;;;;;5030936;28;45411;-62
2022/04/11 03:35:23;;;;;;;;;3.50;3.50;;;;;;;;5031025;28;45416;-61
2022/04/11 03:37:48;;;;;;;;;5.50;4.75;;;;;;;;5031392;28;47318;-62
2022/04/11 03:40:14;;;;;;;;;5.00;5.00;;;;;;;;5033391;28;45297;-61
2022/04/11 03:42:39;;;;;;;;;4.00;4.00;;;;;;;;5032533;28;45543;-62
2022/04/11 03:45:05;;;;;;;;;5.50;4.50;;;;;;;;5032863;28;45393;-62
2022/04/11 03:47:30;;;;;;;;;4.50;4.50;;;;;;;;5031185;28;47435;-62
2022/04/11 03:49:55;;;;;;;;;3.00;3.00;;;;;;;;5030594;28;45554;-62
2022/04/11 03:52:20;;;;;;;;;3.75;3.75;;;;;;;;5033488;28;45595;-62
2022/04/11 03:54:45;;;;;;;;;5.00;5.00;;;;;;;;5034720;28;45376;-61
2022/04/11 03:57:11;;;;;;;;;5.00;5.00;;;;;;;;5027916;28;46633;-61
2022/04/11 03:59:38;;;;;;;;;4.25;4.25;;;;;;;;5024984;28;45608;-59
2022/04/11 04:02:03;;;;;;;;;6.25;6.25;;;;;;;;5031758;28;45389;-60
2022/04/11 04:04:28;;;;;;;;;3.75;3.00;;;;;;;;5032124;28;45325;-61
2022/04/11 04:06:53;;;;;;;;;1.00;1.00;;;;;;;;5029984;28;47634;-61
2022/04/11 04:09:19;;;;;;;;;5.75;5.75;;;;;;;;5029332;28;45497;-62
2022/04/11 04:11:44;;;;;;;;;5.25;5.25;;;;;;;;5027925;28;45369;-62
2022/04/11 04:14:09;;;;;;;;;4.00;3.00;;;;;;;;5022657;28;45568;-62
2022/04/11 04:16:35;;;;;;;;;8.50;6.25;;;;;;;;5035444;28;45582;-62
2022/04/11 04:19:00;;;;;;;;;8.00;8.00;;;;;;;;5038146;28;45356;-62
2022/04/11 04:21:25;;;;;;;;;5.00;5.00;;;;;;;;5031306;28;45361;-62
2022/04/11 04:23:51;;;;;;;;;8.75;7.50;;;;;;;;5028831;28;45361;-62
2022/04/11 04:26:16;;;;;;;;;5.50;5.50;;;;;;;;5035636;28;46021;-62
2022/04/11 04:28:41;;;;;;;;;4.25;4.00;;;;;;;;5033984;28;46405;-62
2022/04/11 04:31:06;;;;;;;;;10.25;5.75;;;;;;;;5032590;28;45767;-62
2022/04/11 04:33:31;;;;;;;;;11.50;8.25;;;;;;;;5035890;28;45333;-62
2022/04/11 04:35:57;;;;;;;;;10.00;8.00;;;;;;;;5035073;28;45743;-61
2022/04/11 04:38:22;;;;;;;;;6.00;6.00;;;;;;;;5035073;28;45524;-61
2022/04/11 04:40:47;;;;;;;;;8.00;7.50;;;;;;;;5034269;28;46026;-61
2022/04/11 04:43:12;;;;;;;;;4.00;4.00;;;;;;;;5036882;28;45376;-62
2022/04/11 04:45:38;;;;;;;;;6.25;6.25;;;;;;;;5026387;28;45494;-63
2022/04/11 04:48:04;;;;;;;;;9.00;9.00;;;;;;;;5033095;28;45567;-62
2022/04/11 04:50:29;;;;;;;;;7.00;7.00;;;;;;;;5035297;28;45402;-63
2022/04/11 04:52:54;;;;;;;;;14.50;10.25;;;;;;;;5034112;28;45449;-62
2022/04/11 04:55:20;;;;;;;;;9.75;9.25;;;;;;;;5033387;28;48092;-62
2022/04/11 04:57:45;;;;;;;;;11.25;8.50;;;;;;;;5034691;28;45424;-62
2022/04/11 05:00:10;;;;;;;;;8.50;7.00;;;;;;;;5028441;28;45433;-61
2022/04/11 05:02:36;;;;;;;;;7.25;7.25;;;;;;;;5026472;28;45455;-61
2022/04/11 05:05:05;;;;;;;;;6.25;6.25;;;;;;;;5035550;28;46453;-62
2022/04/11 05:07:31;;;;;;;;;5.00;5.00;;;;;;;;5027225;28;45346;-62
2022/04/11 05:09:56;;;;;;;;;5.50;5.50;;;;;;;;5033528;28;45222;-62
2022/04/11 05:12:21;;;;;;;;;6.50;6.50;;;;;;;;5030250;28;45347;-62
2022/04/11 05:14:46;;;;;;;;;9.25;8.00;;;;;;;;5031573;28;45724;-62
2022/04/11 05:17:11;;;;;;;;;9.00;8.00;;;;;;;;5033177;28;45539;-62
2022/04/11 05:19:37;;;;;;;;;8.25;8.25;;;;;;;;5031627;28;45339;-62
2022/04/11 05:22:02;;;;;;;;;5.00;5.00;;;;;;;;5034971;28;45384;-61
2022/04/11 05:24:27;;;;;;;;;8.00;8.00;;;;;;;;5029875;28;48567;-61
2022/04/11 05:26:52;;;;;;;;;5.50;5.50;;;;;;;;5026503;28;45345;-61
2022/04/11 05:29:18;;;;;;;;;5.00;5.00;;;;;;;;5032461;28;45592;-62
2022/04/11 05:31:43;;;;;;;;;9.25;7.75;;;;;;;;5029507;28;46085;-62
2022/04/11 05:34:08;;;;;;;;;5.50;5.50;;;;;;;;5023140;28;46476;-62
2022/04/11 05:36:34;;;;;;;;;5.75;5.75;;;;;;;;5022145;28;45398;-62
2022/04/11 05:38:59;;;;;;;;;7.00;5.25;;;;;;;;5028752;28;45821;-64
2022/04/11 05:41:25;;;;;;;;;8.75;7.75;;;;;;;;5033442;28;45527;-62
2022/04/11 05:43:50;;;;;;;;;5.00;5.00;;;;;;;;5034727;28;45844;-63
2022/04/11 05:46:15;;;;;;;;;9.00;8.00;;;;;;;;5030047;28;47049;-63
2022/04/11 05:48:42;;;;;;;;;6.25;5.00;;;;;;;;5025229;28;45594;-63
2022/04/11 05:51:07;;;;;;;;;9.50;5.50;;;;;;;;5023844;28;45322;-63
2022/04/11 05:53:33;;;;;;;;;9.50;8.00;;;;;;;;5031047;28;45360;-62
2022/04/11 05:55:58;;;;;;;;;7.00;5.75;;;;;;;;5031493;28;45484;-62
2022/04/11 05:58:23;;;;;;;;;5.25;5.25;;;;;;;;5032369;28;45451;-62
2022/04/11 06:00:48;;;;;;;;;9.50;6.75;;;;;;;;5025881;28;45536;-62
2022/04/11 06:03:13;;;;;;;;;6.75;6.75;;;;;;;;5028315;28;45739;-61
2022/04/11 06:05:39;;;;;;;;;8.25;8.25;;;;;;;;5030630;28;45520;-62
2022/04/11 06:08:04;;;;;;;;;9.75;8.75;;;;;;;;5033093;28;45519;-63
2022/04/11 06:10:30;;;;;;;;;10.50;9.00;;;;;;;;5034130;28;45158;-62
2022/04/11 06:12:55;;;;;;;;;12.50;10.75;;;;;;;;5035978;28;45992;-61
2022/04/11 06:15:20;;;;;;;;;10.00;10.00;;;;;;;;5029270;28;45567;-63
2022/04/11 06:17:45;;;;;;;;;9.75;9.75;;;;;;;;5027854;28;45575;-61
2022/04/11 06:20:11;;;;;;;;;11.00;9.25;;;;;;;;5015550;28;45403;-62
2022/04/11 06:22:38;;;;;;;;;10.25;9.25;;;;;;;;5034164;28;46286;-63
2022/04/11 06:25:05;;;;;;;;;9.25;8.75;;;;;;;;5014932;28;46336;-61
2022/04/11 06:27:32;;;;;;;;;11.00;11.00;;;;;;;;5032073;28;45358;-61
2022/04/11 06:29:57;;;;;;;;;12.75;12.00;;;;;;;;5033232;28;45682;-61
2022/04/11 06:32:26;;;;;;;;;11.00;11.00;;;;;;;;5033589;28;45721;-61
2022/04/11 06:34:51;;;;;;;;;11.50;11.25;;;;;;;;5033643;28;45471;-62
2022/04/11 06:37:16;;;;;;;;;11.00;10.00;;;;;;;;5034461;28;45324;-60
2022/04/11 06:39:41;;;;;;;;;9.25;7.25;;;;;;;;5033541;28;45241;-62
2022/04/11 06:42:07;;;;;;;;;11.75;10.50;;;;;;;;5033359;28;45275;-61
2022/04/11 06:44:33;;;;;;;;;11.75;10.50;;;;;;;;5033378;28;45420;-62
2022/04/11 06:46:58;;;;;;;;;9.00;7.00;;;;;;;;5032529;28;45424;-62
2022/04/11 06:49:23;;;;;;;;;12.00;12.00;;;;;;;;5033607;28;45517;-62
2022/04/11 06:51:48;;;;;;;;;12.00;11.00;;;;;;;;5030824;28;46149;-62
2022/04/11 06:54:13;;;;;;;;;11.50;10.50;;;;;;;;5029530;28;45366;-60
2022/04/11 06:56:39;;;;;;;;;12.75;12.75;;;;;;;;5033600;28;46118;-62
2022/04/11 06:59:04;;;;;;;;;11.25;11.25;;;;;;;;5033587;28;45419;-62
2022/04/11 07:01:29;;;;;;;;;12.50;9.00;;;;;;;;5033348;28;46412;-63
2022/04/11 07:03:54;;;;;;;;;12.75;12.75;;;;;;;;5035432;28;45372;-63
2022/04/11 07:06:19;;;;;;;;;10.50;10.00;;;;;;;;5028959;28;45392;-62
2022/04/11 07:08:45;;;;;;;;;9.75;9.75;;;;;;;;5025372;28;45388;-61
2022/04/11 07:11:10;;;;;;;;;11.00;11.00;;;;;;;;5033214;28;45579;-62
2022/04/11 07:13:35;;;;;;;;;11.75;10.25;;;;;;;;5033128;28;45514;-62
2022/04/11 07:16:01;;;;;;;;;11.50;11.50;;;;;;;;5035738;28;45401;-61
2022/04/11 07:18:27;;;;;;;;;10.00;10.00;;;;;;;;5027314;28;45609;-61
2022/04/11 07:20:55;;;;;;;;;10.00;9.25;;;;;;;;5026873;28;47531;-62
2022/04/11 07:23:20;;;;;;;;;10.00;10.00;;;;;;;;5034320;28;47317;-64
2022/04/11 07:25:45;;;;;;;;;9.50;9.25;;;;;;;;5035951;28;45471;-63
2022/04/11 07:28:10;;;;;;;;;10.00;10.00;;;;;;;;5035594;28;45430;-63
2022/04/11 07:30:36;;;;;;;;;9.50;9.50;;;;;;;;5034018;28;46518;-62
2022/04/11 07:33:01;;;;;;;;;13.00;10.50;;;;;;;;5033130;28;45496;-61
2022/04/11 07:35:27;;;;;;;;;10.25;9.50;;;;;;;;5033212;28;45527;-61
2022/04/11 07:37:52;;;;;;;;;10.00;9.00;;;;;;;;5031806;28;45564;-62
2022/04/11 07:40:17;;;;;;;;;12.75;11.50;;;;;;;;5030415;28;47313;-60
2022/04/11 07:42:42;;;;;;;;;10.75;10.25;;;;;;;;5034325;28;45375;-61
2022/04/11 07:45:08;;;;;;;;;10.50;9.50;;;;;;;;5032996;28;45359;-62
2022/04/11 07:47:33;;;;;;;;;8.00;7.50;;;;;;;;5033029;28;45343;-61
2022/04/11 07:49:58;;;;;;;;;7.50;7.50;;;;;;;;5034078;28;46483;-61
2022/04/11 07:52:25;;;;;;;;;9.25;9.25;;;;;;;;5036296;28;45372;-62
2022/04/11 07:54:50;;;;;;;;;9.50;9.25;;;;;;;;5038529;28;45400;-61
2022/04/11 07:57:16;;;;;;;;;11.75;10.75;;;;;;;;5034668;28;45499;-64
2022/04/11 07:59:41;;;;;;;;;9.25;9.25;;;;;;;;5031616;28;47335;-62
2022/04/11 08:02:06;;;;;;;;;11.00;10.25;;;;;;;;5024287;28;45306;-62
2022/04/11 08:04:32;;;;;;;;;9.25;8.50;;;;;;;;5036210;28;45973;-62
2022/04/11 08:06:57;;;;;;;;;9.50;7.75;;;;;;;;5038291;28;45440;-62
2022/04/11 08:09:23;;;;;;;;;11.00;8.00;;;;;;;;5031592;28;48586;-62
2022/04/11 08:11:48;;;;;;;;;8.00;7.00;;;;;;;;5028250;28;45415;-62
2022/04/11 08:14:13;;;;;;;;;12.00;9.25;;;;;;;;5036024;28;45209;-60
2022/04/11 08:16:39;;;;;;;;;7.50;7.00;;;;;;;;5034917;28;45220;-61
2022/04/11 08:19:04;;;;;;;;;8.50;8.50;;;;;;;;5037923;28;46569;-61
2022/04/11 08:21:29;;;;;;;;;8.00;8.00;;;;;;;;5035853;28;45443;-62
2022/04/11 08:23:54;;;;;;;;;7.75;7.00;;;;;;;;5035867;28;45380;-62
2022/04/11 08:26:19;;;;;;;;;8.25;8.25;;;;;;;;5034512;28;45354;-62
2022/04/11 08:28:45;;;;;;;;;8.75;7.75;;;;;;;;5033987;28;46439;-62
2022/04/11 08:31:10;;;;;;;;;7.75;7.00;;;;;;;;5037394;28;45337;-62
2022/04/11 08:33:35;;;;;;;;;8.25;8.25;;;;;;;;5036604;28;45414;-62
2022/04/11 08:36:00;;;;;;;;;8.75;8.50;;;;;;;;5034321;28;45273;-62
2022/04/11 08:38:26;;;;;;;;;9.75;7.25;;;;;;;;5034161;28;46996;-63
2022/04/11 08:40:53;;;;;;;;;8.00;8.00;;;;;;;;5035793;28;45554;-62
2022/04/11 08:43:22;;;;;;;;;12.00;8.75;;;;;;;;5033521;28;45454;-62
2022/04/11 08:45:48;;;;;;;;;9.00;8.00;;;;;;;;5035657;28;45464;-62
2022/04/11 08:48:13;;;;;;;;;7.50;7.50;;;;;;;;5035254;28;45725;-61
2022/04/11 08:50:39;;;;;;;;;9.75;7.75;;;;;;;;5035289;28;45515;-61
2022/04/11 08:53:04;;;;;;;;;9.00;8.00;;;;;;;;5035572;28;45562;-61
2022/04/11 08:55:30;;;;;;;;;7.00;7.00;;;;;;;;5035705;28;45431;-62
2022/04/11 08:57:56;;;;;;;;;8.50;6.75;;;;;;;;5037431;28;46492;-60
2022/04/11 09:00:22;;;;;;;;;5.50;5.50;;;;;;;;5035155;28;45512;-62
2022/04/11 09:02:47;;;;;;;;;4.50;4.50;;;;;;;;5030647;28;45345;-63
2022/04/11 09:05:18;;;;;;;;;5.25;3.75;;;;;;;;5022834;28;45519;-62
2022/04/11 09:07:47;;;;;;;;;4.00;4.00;;;;;;;;5035205;28;45352;-61
2022/04/11 09:10:20;;;;;;;;;5.00;3.75;;;;;;;;5032398;28;45494;-64
2022/04/11 09:12:47;;;;;;;;;4.00;4.00;;;;;;;;5015690;28;45881;-63
2022/04/11 09:15:12;;;;;;;;;5.25;5.25;;;;;;;;5032250;28;45639;-64
2022/04/11 09:17:44;;;;;;;;;4.50;3.00;;;;;;;;5035012;28;46187;-64
2022/04/11 09:20:14;;;;;;;;;5.25;5.00;;;;;;;;5035225;28;45425;-64
2022/04/11 09:22:39;;;;;;;;;3.00;2.75;;;;;;;;5035379;28;45505;-64
2022/04/11 09:25:06;;;;;;;;;4.50;4.50;;;;;;;;5036963;28;45431;-63
2022/04/11 09:27:31;;;;;;;;;3.50;3.50;;;;;;;;5034409;28;46442;-64
2022/04/11 09:29:56;;;;;;;;;4.25;4.25;;;;;;;;5034428;28;46089;-63
2022/04/11 09:32:21;;;;;;;;;4.00;4.00;;;;;;;;5035012;28;45393;-64
2022/04/11 09:34:52;;;;;;;;;3.00;3.00;;;;;;;;5035092;28;45508;-64
2022/04/11 09:37:17;;;;;;;;;3.75;3.75;;;;;;;;5032131;28;46942;-64
2022/04/11 09:39:44;;;;;;;;;3.00;3.00;;;;;;;;5035834;28;45369;-64
2022/04/11 09:42:09;;;;;;;;;3.00;3.00;;;;;;;;5034413;28;45498;-64
2022/04/11 09:44:35;;;;;;;;;4.00;4.00;;;;;;;;5034646;28;45567;-64
2022/04/11 09:47:02;;;;;;;;;4.00;3.00;;;;;;;;5033290;28;46420;-64
2022/04/11 09:49:27;;;;;;;;;3.75;3.75;;;;;;;;5032601;28;45834;-64
2022/04/11 09:52:09;;;;;;;;;5.25;5.00;;;;;;;;5036781;28;45259;-63
2022/04/11 09:54:56;;;;;;;;;2.00;2.00;;;;;;;;5033997;28;45286;-63
2022/04/11 09:57:25;;;;;;;;;4.00;3.75;;;;;;;;5034106;28;46337;-63
2022/04/11 09:59:51;;;;;;;;;3.50;3.50;;;;;;;;5034176;28;45460;-63
2022/04/11 10:02:18;;;;;;;;;4.25;4.25;;;;;;;;5034233;28;45475;-63
2022/04/11 10:04:43;;;;;;;;;2.25;2.25;;;;;;;;5015841;28;45437;-63
2022/04/11 10:07:11;;;;;;;;;2.50;2.50;;;;;;;;5036144;28;46620;-63
2022/04/11 10:09:40;;;;;;;;;4.25;2.25;;;;;;;;5062370;27;45440;-65
2022/04/11 10:12:05;;;;;;;;;2.75;2.75;;;;;;;;5028919;28;45246;-63
2022/04/11 10:14:31;;;;;;;;;3.00;3.00;;;;;;;;5023018;28;45350;-64
2022/04/11 10:16:57;;;;;;;;;5.25;4.25;;;;;;;;5034244;28;47724;-64
2022/04/11 10:19:24;;;;;;;;;3.50;2.00;;;;;;;;5034311;28;45518;-63
2022/04/11 10:21:51;;;;;;;;;3.00;2.00;;;;;;;;5034327;28;45420;-65
2022/04/11 10:24:22;;;;;;;;;2.25;2.25;;;;;;;;5033981;28;45328;-64
2022/04/11 10:26:52;;;;;;;;;2.25;2.25;;;;;;;;5033683;28;46257;-64
2022/04/11 10:29:30;;;;;;;;;3.50;3.00;;;;;;;;5033173;28;45403;-63
2022/04/11 10:32:08;;;;;;;;;3.50;2.25;;;;;;;;5032595;28;45483;-64
2022/04/11 10:34:53;;;;;;;;;2.50;2.50;;;;;;;;5034083;28;45590;-64
2022/04/11 10:37:20;;;;;;;;;2.50;2.50;;;;;;;;5032172;28;45995;-64
2022/04/11 10:39:46;;;;;;;;;1.75;1.75;;;;;;;;5036224;28;45379;-66
2022/04/11 10:42:12;;;;;;;;;2.00;2.00;;;;;;;;5029685;28;45400;-66
2022/04/11 10:44:40;;;;;;;;;2.00;2.00;;;;;;;;5024743;28;45396;-66
2022/04/11 10:47:08;;;;;;;;;2.75;2.75;;;;;;;;5032428;28;46520;-66
2022/04/11 10:49:48;;;;;;;;;4.00;2.00;;;;;;;;5033745;28;45923;-66
2022/04/11 10:52:29;;;;;;;;;3.25;3.25;;;;;;;;5032087;28;45233;-65
2022/04/11 10:54:55;;;;;;;;;3.00;3.00;;;;;;;;5035740;28;45392;-65
2022/04/11 10:57:33;;;;;;;;;3.00;3.00;;;;;;;;5028600;28;46559;-65
2022/04/11 11:00:10;;;;;;;;;5.25;2.75;;;;;;;;5027072;28;45524;-66
2022/04/11 11:02:47;;;;;;;;;2.25;2.25;;;;;;;;5033352;28;45301;-66
2022/04/11 11:05:25;;;;;;;;;3.00;3.00;;;;;;;;5033394;28;45528;-64
2022/04/11 11:08:05;;;;;;;;;3.00;3.00;;;;;;;;5030427;28;47266;-64
2022/04/11 11:10:52;;;;;;;;;3.00;3.00;;;;;;;;5033096;28;45368;-65
2022/04/11 11:13:23;;;;;;;;;3.00;3.00;;;;;;;;5031865;28;45289;-64
2022/04/11 11:15:48;;;;;;;;;2.25;2.25;;;;;;;;5030515;28;45321;-65
2022/04/11 11:18:13;;;;;;;;;2.00;2.00;;;;;;;;5029107;28;45412;-64
2022/04/11 11:20:48;;;;;;;;;2.25;2.25;;;;;;;;5028972;28;45475;-63
2022/04/11 11:23:21;;;;;;;;;3.00;3.00;;;;;;;;5019870;28;45416;-63
2022/04/11 11:25:48;;;;;;;;;3.50;3.50;;;;;;;;5035441;28;45575;-63
2022/04/11 11:28:13;;;;;;;;;2.00;2.00;;;;;;;;5037790;28;46531;-62
2022/04/11 11:30:39;;;;;;;;;2.50;2.50;;;;;;;;5037515;28;45340;-62
2022/04/11 11:33:07;;;;;;;;;3.50;3.00;;;;;;;;5036807;28;45355;-63
2022/04/11 11:35:32;;;;;;;;;3.25;2.50;;;;;;;;5036537;28;45567;-62
2022/04/11 11:38:04;;;;;;;;;2.25;2.25;;;;;;;;5034585;28;48639;-64
2022/04/11 11:40:29;;;;;;;;;3.50;2.50;;;;;;;;5036774;28;45373;-62
2022/04/11 11:42:56;;;;;;;;;2.00;2.00;;;;;;;;5034086;28;45698;-62
2022/04/11 11:45:27;;;;;;;;;1.00;1.00;;;;;;;;5035020;28;45521;-62
2022/04/11 11:47:53;;;;;;;;;3.25;2.50;;;;;;;;5036053;28;46237;-62
2022/04/11 11:50:18;;;;;;;;;4.25;4.00;;;;;;;;5035161;28;45469;-63
2022/04/11 11:52:55;;;;;;;;;6.00;3.25;;;;;;;;5036632;28;45407;-63
2022/04/11 11:55:20;;;;;;;;;2.25;2.25;;;;;;;;5035571;28;45584;-63
2022/04/11 11:57:46;;;;;;;;;0.50;0.50;;;;;;;;5037785;28;46204;-63
2022/04/11 12:00:12;;;;;;;;;1.75;0.75;;;;;;;;5031661;28;45498;-63
2022/04/11 12:05:36;;;;;;;;;5.00;3.75;;;;;;;;5034138;28;45343;-62
2022/04/11 12:08:01;;;;;;;;;4.00;4.00;;;;;;;;5015912;28;47608;-63
2022/04/11 12:10:26;;;;;;;;;2.75;2.75;;;;;;;;5034102;28;45899;-63
2022/04/11 12:12:53;;;;;;;;;4.50;4.00;;;;;;;;5034288;28;45661;-63
2022/04/11 12:15:19;;;;;;;;;4.00;4.00;;;;;;;;5032305;28;45581;-63
2022/04/11 12:17:45;;;;;;;;;3.00;3.00;;;;;;;;5032133;28;46368;-62
2022/04/11 12:20:18;;;;;;;;;2.00;2.00;;;;;;;;5032263;28;45461;-61
2022/04/11 12:23:02;;;;;;;;;3.75;3.75;;;;;;;;5000855;28;45534;-62
2022/04/11 12:25:28;;;;;;;;;3.50;3.50;;;;;;;;5033978;28;45627;-62
2022/04/11 12:28:09;;;;;;;;;4.25;4.00;;;;;;;;5033824;28;46388;-64
2022/04/11 12:30:34;;;;;;;;;4.75;4.75;;;;;;;;5032216;28;45498;-63
2022/04/11 12:32:59;;;;;;;;;3.25;3.00;;;;;;;;5032427;28;45590;-63
2022/04/11 12:35:24;;;;;;;;;4.50;3.00;;;;;;;;5031875;28;45441;-64
2022/04/11 12:37:50;;;;;;;;;4.00;3.00;;;;;;;;5032122;28;45672;-64
2022/04/11 12:40:16;;;;;;;;;3.00;3.00;;;;;;;;5015876;28;45898;-63
2022/04/11 12:42:41;;;;;;;;;4.25;4.25;;;;;;;;5028757;28;45609;-64
2022/04/11 12:45:13;;;;;;;;;3.00;3.00;;;;;;;;5009333;28;45429;-64
2022/04/11 12:47:57;;;;;;;;;1.25;1.25;;;;;;;;5015493;28;46641;-64
2022/04/11 12:50:22;;;;;;;;;4.00;4.00;;;;;;;;5015155;28;45377;-63
2022/04/11 12:52:47;;;;;;;;;3.50;3.50;;;;;;;;5015883;28;45498;-64
2022/04/11 12:55:14;;;;;;;;;4.00;4.00;;;;;;;;5012608;28;45524;-64
2022/04/11 12:57:40;;;;;;;;;4.00;4.00;;;;;;;;5016390;28;46628;-64
2022/04/11 13:00:16;;;;;;;;;4.50;3.25;;;;;;;;5015207;28;45486;-64
2022/04/11 13:02:42;;;;;;;;;3.75;3.75;;;;;;;;5015489;28;45405;-64
2022/04/11 13:05:12;;;;;;;;;4.25;4.25;;;;;;;;5015344;28;45407;-64
2022/04/11 13:07:39;;;;;;;;;4.50;4.50;;;;;;;;4999745;28;45807;-63
2022/04/11 13:10:05;;;;;;;;;6.00;4.25;;;;;;;;5017251;28;45530;-64
2022/04/11 13:12:30;;;;;;;;;4.00;4.00;;;;;;;;5015253;28;45313;-64
2022/04/11 13:14:55;;;;;;;;;4.25;4.25;;;;;;;;5009330;28;45410;-63
2022/04/11 13:20:05;;;;;;;;;3.75;3.75;;;;;;;;5015267;28;45409;-64
2022/04/11 13:22:30;;;;;;;;;4.00;4.00;;;;;;;;5015082;28;45467;-64
2022/04/11 13:24:55;;;;;;;;;8.75;5.75;;;;;;;;5017276;28;45274;-64
2022/04/11 13:27:22;;;;;;;;;4.50;4.50;;;;;;;;5015940;28;45506;-64
2022/04/11 13:29:48;;;;;;;;;3.75;3.00;;;;;;;;5034922;28;45502;-64
2022/04/11 13:32:13;;;;;;;;;4.75;4.75;;;;;;;;5033348;28;45378;-64
2022/04/11 13:34:38;;;;;;;;;5.25;5.25;;;;;;;;5035132;28;45474;-64
2022/04/11 13:37:04;;;;;;;;;4.75;4.00;;;;;;;;5035656;28;45553;-64
2022/04/11 13:39:29;;;;;;;;;6.25;4.00;;;;;;;;5034840;28;45443;-63
2022/04/11 13:41:55;;;;;;;;;2.00;2.00;;;;;;;;5035067;28;45378;-64
2022/04/11 13:44:21;;;;;;;;;5.00;5.00;;;;;;;;5034955;28;45460;-64
2022/04/11 13:46:46;;;;;;;;;5.00;4.00;;;;;;;;5030955;28;45507;-64
2022/04/11 13:49:13;;;;;;;;;3.50;3.50;;;;;;;;5036333;28;45288;-63
2022/04/11 13:51:38;;;;;;;;;5.00;4.25;;;;;;;;5035001;28;45421;-66
2022/04/11 13:54:04;;;;;;;;;3.50;3.50;;;;;;;;5029853;28;45648;-65
2022/04/11 13:56:29;;;;;;;;;4.00;4.00;;;;;;;;5024467;28;45746;-62
2022/04/11 13:58:54;;;;;;;;;4.50;4.50;;;;;;;;5034462;28;45599;-62
2022/04/11 14:01:19;;;;;;;;;5.00;4.00;;;;;;;;5035397;28;45444;-63
2022/04/11 14:03:44;;;;;;;;;4.25;4.25;;;;;;;;5035783;28;45424;-62
2022/04/11 14:06:10;;;;;;;;;2.75;2.00;;;;;;;;5029448;28;45752;-63
2022/04/11 14:08:35;;;;;;;;;2.75;2.75;;;;;;;;5023412;28;46194;-61
2022/04/11 14:11:03;;;;;;;;;3.75;3.75;;;;;;;;5033163;28;45500;-62
2022/04/11 14:13:30;;;;;;;;;4.00;2.00;;;;;;;;5034210;28;45512;-64
2022/04/11 14:15:55;;;;;;;;;3.50;3.00;;;;;;;;5036029;28;46519;-64
2022/04/11 14:18:21;;;;;;;;;2.25;2.00;;;;;;;;5034037;28;45371;-64
2022/04/11 14:20:47;;;;;;;;;2.25;2.25;;;;;;;;5034311;28;45544;-64
2022/04/11 14:23:12;;;;;;;;;2.25;2.25;;;;;;;;5034345;28;45448;-64
2022/04/11 14:25:37;;;;;;;;;2.00;2.00;;;;;;;;5032776;28;48825;-64
2022/04/11 14:28:03;;;;;;;;;2.00;2.00;;;;;;;;5035780;28;45422;-64
2022/04/11 14:30:29;;;;;;;;;1.25;1.25;;;;;;;;5029409;28;45281;-64
2022/04/11 14:32:54;;;;;;;;;3.00;3.00;;;;;;;;5027009;28;45556;-64
2022/04/11 14:35:21;;;;;;;;;1.00;1.00;;;;;;;;5033638;28;45442;-64
2022/04/11 14:37:49;;;;;;;;;3.00;2.00;;;;;;;;5033846;28;45325;-64
2022/04/11 14:40:14;;;;;;;;;1.25;1.25;;;;;;;;5035348;28;45425;-64
2022/04/11 14:42:39;;;;;;;;;1.50;1.50;;;;;;;;5034527;28;45456;-63